sensor_id;sensor_type;location;lat;lon;timestamp;pressure;altitude;pressure_sealevel;temperature;humidity
43691;BME280;29293;52.190;21.226;2023-03-03T00:00:16;100787.23;;;-4.17;100.00
43691;BME280;29293;52.190;21.226;2023-03-03T00:16:04;100776.63;;;-4.21;100.00
43691;BME280;29293;52.190;21.226;2023-03-03T00:31:28;100766.89;;;-4.28;100.00
43691;BME280;29293;52.190;21.226;2023-03-03T00:46:41;100743.63;;;-4.30;100.00
43691;BME280;29293;52.190;21.226;2023-03-03T01:01:51;100722.61;;;-4.34;100.00
43691;BME280;29293;52.190;21.226;2023-03-03T01:17:00;100706.88;;;-4.34;100.00
43691;BME280;29293;52.190;21.226;2023-03-03T01:32:11;100692.88;;;-4.40;100.00
43691;BME280;29293;52.190;21.226;2023-03-03T01:47:23;100666.55;;;-4.47;100.00
43691;BME280;29293;52.190;21.226;2023-03-03T02:17:53;100652.98;;;-4.44;100.00
43691;BME280;29293;52.190;21.226;2023-03-03T02:33:03;100647.95;;;-4.32;100.00
43691;BME280;29293;52.190;21.226;2023-03-03T02:48:13;100643.98;;;-4.09;100.00
43691;BME280;29293;52.190;21.226;2023-03-03T03:03:23;100632.87;;;-3.95;100.00
43691;BME280;29293;52.190;21.226;2023-03-03T03:18:35;100623.17;;;-3.78;100.00
43691;BME280;29293;52.190;21.226;2023-03-03T03:33:44;100618.48;;;-3.59;100.00
43691;BME280;29293;52.190;21.226;2023-03-03T03:48:54;100611.21;;;-3.59;100.00
43691;BME280;29293;52.190;21.226;2023-03-03T04:04:04;100612.69;;;-3.60;100.00
43691;BME280;29293;52.190;21.226;2023-03-03T04:19:14;100592.08;;;-3.75;100.00
43691;BME280;29293;52.190;21.226;2023-03-03T04:34:23;100584.49;;;-3.96;100.00
43691;BME280;29293;52.190;21.226;2023-03-03T04:49:34;100569.44;;;-4.06;100.00
43691;BME280;29293;52.190;21.226;2023-03-03T05:04:43;100557.00;;;-4.22;100.00
43691;BME280;29293;52.190;21.226;2023-03-03T05:19:53;100554.02;;;-4.22;100.00
43691;BME280;29293;52.190;21.226;2023-03-03T05:35:04;100551.66;;;-4.25;100.00
43691;BME280;29293;52.190;21.226;2023-03-03T05:50:16;100547.58;;;-4.07;100.00
43691;BME280;29293;52.190;21.226;2023-03-03T06:05:26;100539.32;;;-3.64;100.00
43691;BME280;29293;52.190;21.226;2023-03-03T06:20:36;100539.02;;;-3.19;100.00
43691;BME280;29293;52.190;21.226;2023-03-03T06:36:08;100542.95;;;-2.82;100.00
43691;BME280;29293;52.190;21.226;2023-03-03T06:51:30;100541.73;;;-2.31;100.00
43691;BME280;29293;52.190;21.226;2023-03-03T07:06:42;100543.30;;;-2.06;100.00
43691;BME280;29293;52.190;21.226;2023-03-03T07:21:52;100542.20;;;-1.99;100.00
43691;BME280;29293;52.190;21.226;2023-03-03T07:37:09;100540.58;;;-1.73;100.00
43691;BME280;29293;52.190;21.226;2023-03-03T07:52:35;100543.86;;;-1.83;100.00
43691;BME280;29293;52.190;21.226;2023-03-03T08:07:50;100553.63;;;-1.60;100.00
43691;BME280;29293;52.190;21.226;2023-03-03T08:23:00;100565.23;;;-1.52;100.00
43691;BME280;29293;52.190;21.226;2023-03-03T08:38:11;100573.21;;;-1.30;100.00
43691;BME280;29293;52.190;21.226;2023-03-03T08:53:22;100583.10;;;-0.89;100.00
43691;BME280;29293;52.190;21.226;2023-03-03T09:08:33;100599.89;;;-0.77;100.00
43691;BME280;29293;52.190;21.226;2023-03-03T09:23:44;100595.92;;;-0.59;100.00
43691;BME280;29293;52.190;21.226;2023-03-03T09:38:57;100566.80;;;-0.38;100.00
43691;BME280;29293;52.190;21.226;2023-03-03T09:54:20;100549.63;;;-0.31;100.00
43691;BME280;29293;52.190;21.226;2023-03-03T10:09:42;100538.47;;;-0.34;100.00
43691;BME280;29293;52.190;21.226;2023-03-03T10:25:06;100539.16;;;-0.21;100.00
43691;BME280;29293;52.190;21.226;2023-03-03T10:40:26;100549.44;;;-0.23;100.00
43691;BME280;29293;52.190;21.226;2023-03-03T10:55:48;100557.09;;;-0.26;100.00
43691;BME280;29293;52.190;21.226;2023-03-03T11:11:09;100548.98;;;-0.40;100.00
43691;BME280;29293;52.190;21.226;2023-03-03T11:42:26;100545.35;;;-0.41;100.00
43691;BME280;29293;52.190;21.226;2023-03-03T11:57:43;100534.76;;;-0.48;100.00
43691;BME280;29293;52.190;21.226;2023-03-03T12:13:00;100539.23;;;-0.62;100.00
43691;BME280;29293;52.190;21.226;2023-03-03T12:28:17;100537.16;;;-0.77;100.00
43691;BME280;29293;52.190;21.226;2023-03-03T12:43:37;100540.34;;;-0.71;100.00
43691;BME280;29293;52.190;21.226;2023-03-03T12:58:55;100536.75;;;-0.73;100.00
43691;BME280;29293;52.190;21.226;2023-03-03T13:14:19;100536.95;;;-0.81;100.00
43691;BME280;29293;52.190;21.226;2023-03-03T13:29:36;100531.09;;;-0.87;100.00
43691;BME280;29293;52.190;21.226;2023-03-03T13:44:51;100526.28;;;-0.81;100.00
43691;BME280;29293;52.190;21.226;2023-03-03T14:00:10;100516.83;;;-0.81;100.00
43691;BME280;29293;52.190;21.226;2023-03-03T14:15:28;100500.30;;;-0.86;100.00
43691;BME280;29293;52.190;21.226;2023-03-03T14:30:40;100499.23;;;-1.00;100.00
43691;BME280;29293;52.190;21.226;2023-03-03T14:45:52;100509.39;;;-1.03;100.00
43691;BME280;29293;52.190;21.226;2023-03-03T15:01:12;100503.59;;;-1.09;100.00
43691;BME280;29293;52.190;21.226;2023-03-03T15:16:23;100493.08;;;-1.09;100.00
43691;BME280;29293;52.190;21.226;2023-03-03T15:31:55;100497.05;;;-1.05;100.00
43691;BME280;29293;52.190;21.226;2023-03-03T15:47:42;100505.11;;;-1.14;100.00
43691;BME280;29293;52.190;21.226;2023-03-03T16:02:56;100484.49;;;-1.22;100.00
43691;BME280;29293;52.190;21.226;2023-03-03T16:18:16;100486.16;;;-1.23;100.00
43691;BME280;29293;52.190;21.226;2023-03-03T16:33:34;100486.91;;;-1.26;100.00
43691;BME280;29293;52.190;21.226;2023-03-03T16:48:54;100480.73;;;-1.32;100.00
43691;BME280;29293;52.190;21.226;2023-03-03T17:04:11;100481.19;;;-1.34;100.00
43691;BME280;29293;52.190;21.226;2023-03-03T17:19:33;100475.13;;;-1.39;100.00
43691;BME280;29293;52.190;21.226;2023-03-03T17:34:56;100477.58;;;-1.36;100.00
43691;BME280;29293;52.190;21.226;2023-03-03T17:50:23;100477.59;;;-1.39;100.00
43691;BME280;29293;52.190;21.226;2023-03-03T18:05:47;100461.11;;;-1.45;100.00
43691;BME280;29293;52.190;21.226;2023-03-03T18:21:15;100462.63;;;-1.47;100.00
43691;BME280;29293;52.190;21.226;2023-03-03T18:36:50;100456.84;;;-1.50;100.00
43691;BME280;29293;52.190;21.226;2023-03-03T18:52:15;100446.70;;;-1.53;100.00
43691;BME280;29293;52.190;21.226;2023-03-03T19:07:29;100431.23;;;-1.58;100.00
43691;BME280;29293;52.190;21.226;2023-03-03T19:22:59;100425.53;;;-1.54;100.00
43691;BME280;29293;52.190;21.226;2023-03-03T19:38:20;100403.61;;;-1.53;100.00
43691;BME280;29293;52.190;21.226;2023-03-03T19:53:37;100403.70;;;-1.52;100.00
43691;BME280;29293;52.190;21.226;2023-03-03T20:08:56;100382.12;;;-1.50;100.00
43691;BME280;29293;52.190;21.226;2023-03-03T20:24:44;100364.37;;;-1.50;100.00
43691;BME280;29293;52.190;21.226;2023-03-03T20:40:05;100344.92;;;-1.46;100.00
43691;BME280;29293;52.190;21.226;2023-03-03T20:55:21;100335.98;;;-1.40;100.00
43691;BME280;29293;52.190;21.226;2023-03-03T21:10:34;100321.27;;;-1.34;100.00
43691;BME280;29293;52.190;21.226;2023-03-03T21:26:01;100302.26;;;-1.26;100.00
43691;BME280;29293;52.190;21.226;2023-03-03T21:41:11;100284.17;;;-1.22;100.00
43691;BME280;29293;52.190;21.226;2023-03-03T21:56:20;100263.28;;;-1.17;100.00
43691;BME280;29293;52.190;21.226;2023-03-03T22:11:30;100237.37;;;-1.12;100.00
43691;BME280;29293;52.190;21.226;2023-03-03T22:26:42;100214.54;;;-1.05;100.00
43691;BME280;29293;52.190;21.226;2023-03-03T22:41:51;100196.91;;;-1.02;100.00
43691;BME280;29293;52.190;21.226;2023-03-03T22:57:01;100160.89;;;-0.98;100.00
43691;BME280;29293;52.190;21.226;2023-03-03T23:12:10;100134.23;;;-0.95;100.00
43691;BME280;29293;52.190;21.226;2023-03-03T23:27:20;100110.51;;;-0.93;100.00
43691;BME280;29293;52.190;21.226;2023-03-03T23:42:29;100087.37;;;-0.93;100.00
43691;BME280;29293;52.190;21.226;2023-03-03T23:57:38;100073.45;;;-0.87;100.00
